createdAt,value
2023-05-04T00:02:18.647Z,91.70
2023-05-04T00:04:45.630Z,91.70
2023-05-04T00:07:12.735Z,91.90
2023-05-04T00:09:39.639Z,91.80
2023-05-04T00:12:08.050Z,91.80
2023-05-04T00:14:35.209Z,92.10
2023-05-04T00:17:03.134Z,91.90
2023-05-04T00:19:29.806Z,92.00
2023-05-04T00:21:56.490Z,92.20
2023-05-04T00:24:23.196Z,92.30
2023-05-04T00:26:49.904Z,92.30
2023-05-04T00:29:16.758Z,92.40
2023-05-04T00:31:43.489Z,92.50
2023-05-04T00:34:10.320Z,92.50
2023-05-04T00:36:37.783Z,92.60
2023-05-04T00:39:04.431Z,92.60
2023-05-04T00:41:31.248Z,92.70
2023-05-04T00:43:59.857Z,92.80
2023-05-04T00:46:27.029Z,92.90
2023-05-04T00:48:54.165Z,92.90
2023-05-04T00:51:23.640Z,92.90
2023-05-04T00:53:51.843Z,92.80
2023-05-04T00:56:22.615Z,93.00
2023-05-04T00:58:50.356Z,93.10
2023-05-04T01:01:17.297Z,93.00
2023-05-04T01:03:44.224Z,93.10
2023-05-04T01:06:44.173Z,93.40
2023-05-04T01:09:37.469Z,93.00
2023-05-04T01:12:29.925Z,93.00
2023-05-04T01:14:56.757Z,93.10
2023-05-04T01:17:23.430Z,93.10
2023-05-04T01:19:51.359Z,93.40
2023-05-04T01:22:18.000Z,93.10
2023-05-04T01:24:44.699Z,93.10
2023-05-04T01:27:27.229Z,93.10
2023-05-04T01:30:28.560Z,93.40
2023-05-04T01:32:58.663Z,93.50
2023-05-04T01:35:25.988Z,93.40
2023-05-04T01:37:53.392Z,93.30
2023-05-04T01:40:20.155Z,93.30
2023-05-04T01:42:46.827Z,93.40
2023-05-04T01:45:13.766Z,93.50
2023-05-04T01:47:40.527Z,93.60
2023-05-04T01:50:07.896Z,94.20
2023-05-04T01:52:34.668Z,93.70
2023-05-04T01:55:01.403Z,93.80
2023-05-04T01:57:28.294Z,94.10
2023-05-04T01:59:55.000Z,93.80
2023-05-04T02:02:21.776Z,93.90
2023-05-04T02:04:48.587Z,93.90
2023-05-04T02:07:15.312Z,94.00
2023-05-04T02:09:42.216Z,94.00
2023-05-04T02:12:09.223Z,94.10
2023-05-04T02:14:35.933Z,94.20
2023-05-04T02:17:02.622Z,94.00
2023-05-04T02:19:29.339Z,94.10
2023-05-04T02:21:56.013Z,94.20
2023-05-04T02:24:22.717Z,94.20
2023-05-04T02:26:49.404Z,94.20
2023-05-04T02:29:16.067Z,94.40
2023-05-04T02:31:42.755Z,94.40
2023-05-04T02:34:09.431Z,94.40
2023-05-04T02:36:36.078Z,94.40
2023-05-04T02:39:03.055Z,94.50
2023-05-04T02:41:29.724Z,94.50
2023-05-04T02:43:56.604Z,94.40
2023-05-04T02:46:25.289Z,94.30
2023-05-04T02:48:52.165Z,94.30
2023-05-04T02:51:19.640Z,94.40
2023-05-04T02:53:46.317Z,94.60
2023-05-04T02:56:12.985Z,94.70
2023-05-04T02:58:39.688Z,94.80
2023-05-04T03:01:06.428Z,94.90
2023-05-04T03:03:33.299Z,94.90
2023-05-04T03:05:59.976Z,94.90
2023-05-04T03:08:26.747Z,95.00
2023-05-04T03:10:53.399Z,95.00
2023-05-04T03:13:20.065Z,95.00
2023-05-04T03:15:46.746Z,95.50
2023-05-04T03:18:13.730Z,95.10
2023-05-04T03:20:40.966Z,94.90
2023-05-04T03:23:07.727Z,94.80
2023-05-04T03:25:34.397Z,94.90
2023-05-04T03:28:01.238Z,94.90
2023-05-04T03:30:27.931Z,95.00
2023-05-04T03:32:54.749Z,95.00
2023-05-04T03:35:24.955Z,95.00
2023-05-04T03:37:52.057Z,95.10
2023-05-04T03:40:23.194Z,95.10
2023-05-04T03:42:51.599Z,95.10
2023-05-04T03:45:18.751Z,95.20
2023-05-04T03:47:45.510Z,95.30
2023-05-04T03:50:13.277Z,95.30
2023-05-04T03:52:39.995Z,95.30
2023-05-04T03:55:07.689Z,95.20
2023-05-04T03:57:34.399Z,95.30
2023-05-04T04:00:01.249Z,95.30
2023-05-04T04:02:28.011Z,95.40
2023-05-04T04:04:54.754Z,95.60
2023-05-04T04:07:21.551Z,95.70
2023-05-04T04:09:48.279Z,95.70
2023-05-04T04:12:18.451Z,95.60
2023-05-04T04:14:45.459Z,95.70
2023-05-04T04:17:12.158Z,95.60
2023-05-04T04:19:39.027Z,96.10
2023-05-04T04:22:05.826Z,95.90
2023-05-04T04:24:33.521Z,96.40
2023-05-04T04:27:00.278Z,95.90
2023-05-04T04:29:27.306Z,95.70
2023-05-04T04:31:54.365Z,95.70
2023-05-04T04:34:21.083Z,95.80
2023-05-04T04:36:47.783Z,95.40
2023-05-04T04:39:16.610Z,95.30
2023-05-04T04:41:43.358Z,95.10
2023-05-04T04:44:10.185Z,95.00
2023-05-04T04:46:36.864Z,94.90
2023-05-04T04:49:03.670Z,94.80
2023-05-04T04:51:30.402Z,94.70
2023-05-04T04:53:57.182Z,94.60
2023-05-04T04:56:23.857Z,94.40
2023-05-04T04:58:50.900Z,94.90
2023-05-04T05:01:18.910Z,94.20
2023-05-04T05:03:45.819Z,94.20
2023-05-04T05:06:13.345Z,94.10
2023-05-04T05:08:43.982Z,93.90
2023-05-04T05:11:11.436Z,93.70
2023-05-04T05:13:38.290Z,93.50
2023-05-04T05:16:06.073Z,93.50
2023-05-04T05:18:33.025Z,93.60
2023-05-04T05:21:00.759Z,93.50
2023-05-04T05:23:27.657Z,93.20
2023-05-04T05:25:55.764Z,93.10
2023-05-04T05:28:23.014Z,92.90
2023-05-04T05:30:51.928Z,92.70
2023-05-04T05:33:19.251Z,92.70
2023-05-04T05:35:46.127Z,92.70
2023-05-04T05:38:12.962Z,92.50
2023-05-04T05:40:39.684Z,92.10
2023-05-04T05:43:06.478Z,91.80
2023-05-04T05:45:33.323Z,91.50
2023-05-04T05:48:00.150Z,91.30
2023-05-04T05:50:26.872Z,91.20
2023-05-04T05:52:53.550Z,91.30
2023-05-04T05:55:20.260Z,91.10
2023-05-04T05:57:47.085Z,90.60
2023-05-04T06:00:14.458Z,90.50
2023-05-04T06:02:41.211Z,90.40
2023-05-04T06:05:08.285Z,90.10
2023-05-04T06:07:34.968Z,90.20
2023-05-04T06:10:02.179Z,90.00
2023-05-04T06:12:28.874Z,90.10
2023-05-04T06:14:55.583Z,89.80
2023-05-04T06:17:22.226Z,90.20
2023-05-04T06:19:51.139Z,89.70
2023-05-04T06:22:18.075Z,89.30
2023-05-04T06:24:44.741Z,88.80
2023-05-04T06:27:11.443Z,88.10
2023-05-04T06:29:41.485Z,88.00
2023-05-04T06:32:11.330Z,88.30
2023-05-04T06:34:38.234Z,88.20
2023-05-04T06:37:04.965Z,88.10
2023-05-04T06:39:31.643Z,88.30
2023-05-04T06:41:58.409Z,88.10
2023-05-04T06:44:25.376Z,87.70
2023-05-04T06:46:52.154Z,87.60
2023-05-04T06:49:19.321Z,86.80
2023-05-04T06:51:46.056Z,86.40
2023-05-04T06:54:13.151Z,86.00
2023-05-04T06:56:39.908Z,86.20
2023-05-04T06:59:07.137Z,85.70
2023-05-04T07:01:33.953Z,86.40
2023-05-04T07:04:00.954Z,85.90
2023-05-04T07:06:28.581Z,85.80
2023-05-04T07:08:55.432Z,85.50
2023-05-04T07:11:22.140Z,86.00
2023-05-04T07:13:49.068Z,85.20
2023-05-04T07:16:15.883Z,84.70
2023-05-04T07:18:42.591Z,85.50
2023-05-04T07:21:26.815Z,84.30
2023-05-04T07:23:55.227Z,83.60
2023-05-04T07:26:22.768Z,85.10
2023-05-04T07:28:49.473Z,82.80
2023-05-04T07:31:16.197Z,83.60
2023-05-04T07:33:43.514Z,83.50
2023-05-04T07:36:10.456Z,82.50
2023-05-04T07:38:37.507Z,82.70
2023-05-04T07:41:04.351Z,82.20
2023-05-04T07:43:31.125Z,82.30
2023-05-04T07:45:57.834Z,81.90
2023-05-04T07:48:26.336Z,81.10
2023-05-04T07:50:53.904Z,80.50
2023-05-04T07:53:20.906Z,79.90
2023-05-04T07:55:48.420Z,80.40
2023-05-04T07:58:16.735Z,79.60
2023-05-04T08:00:43.604Z,80.50
2023-05-04T08:03:10.387Z,80.10
2023-05-04T08:05:37.265Z,80.70
2023-05-04T08:08:03.974Z,80.40
2023-05-04T08:10:30.954Z,78.90
2023-05-04T08:12:57.965Z,78.90
2023-05-04T08:15:24.678Z,78.60
2023-05-04T08:17:51.667Z,77.80
2023-05-04T08:20:18.510Z,77.50
2023-05-04T08:22:45.602Z,76.60
2023-05-04T08:25:12.590Z,75.10
2023-05-04T08:27:39.613Z,74.10
2023-05-04T08:30:07.189Z,74.80
2023-05-04T08:32:33.936Z,73.60
2023-05-04T08:35:00.886Z,73.50
2023-05-04T08:37:27.608Z,72.40
2023-05-04T08:39:54.326Z,72.20
2023-05-04T08:42:31.557Z,71.00
2023-05-04T08:44:59.341Z,72.20
2023-05-04T08:47:27.649Z,70.60
2023-05-04T08:49:56.396Z,68.50
2023-05-04T08:52:24.694Z,67.20
2023-05-04T08:54:57.010Z,67.50
2023-05-04T08:57:25.061Z,66.50
2023-05-04T08:59:56.161Z,65.20
2023-05-04T09:02:24.455Z,66.00
2023-05-04T09:04:52.667Z,64.00
2023-05-04T09:07:21.233Z,64.10
2023-05-04T09:09:50.701Z,63.30
2023-05-04T09:12:18.169Z,63.60
2023-05-04T09:14:48.511Z,63.80
2023-05-04T09:17:17.999Z,62.70
2023-05-04T09:19:44.896Z,62.70
2023-05-04T09:22:18.981Z,62.70
2023-05-04T09:24:46.515Z,61.50
2023-05-04T09:27:15.910Z,61.20
2023-05-04T09:29:43.090Z,59.70
2023-05-04T09:32:15.200Z,59.90
2023-05-04T09:34:49.695Z,59.10
2023-05-04T09:37:16.522Z,59.80
2023-05-04T09:39:57.988Z,59.90
2023-05-04T09:42:26.562Z,59.30
2023-05-04T09:45:05.695Z,58.70
2023-05-04T09:47:40.717Z,58.30
2023-05-04T09:50:25.544Z,57.70
2023-05-04T09:52:53.411Z,58.60
2023-05-04T09:55:20.785Z,59.30
2023-05-04T09:57:50.427Z,58.40
2023-05-04T10:00:18.382Z,57.80
2023-05-04T10:02:46.643Z,57.40
2023-05-04T10:05:17.219Z,57.90
2023-05-04T10:07:45.008Z,58.10
2023-05-04T10:10:15.606Z,58.30
2023-05-04T10:12:45.105Z,57.70
2023-05-04T10:15:13.485Z,57.50
2023-05-04T10:17:53.774Z,57.40
2023-05-04T10:20:23.686Z,57.40
2023-05-04T10:23:03.756Z,57.50
2023-05-04T10:25:58.428Z,57.20
2023-05-04T10:28:42.912Z,56.40
2023-05-04T10:31:09.908Z,57.10
2023-05-04T10:33:40.812Z,57.20
2023-05-04T10:36:08.928Z,56.80
2023-05-04T10:38:36.462Z,57.40
2023-05-04T10:41:16.764Z,56.90
2023-05-04T10:43:48.582Z,56.30
2023-05-04T10:46:23.251Z,56.10
2023-05-04T10:48:50.893Z,55.90
2023-05-04T10:51:19.790Z,56.30
2023-05-04T10:53:49.747Z,55.90
2023-05-04T10:56:27.348Z,56.00
2023-05-04T10:58:55.277Z,55.40
2023-05-04T11:01:22.413Z,55.00
2023-05-04T11:03:50.486Z,54.50
2023-05-04T11:06:17.665Z,54.30
2023-05-04T11:08:47.131Z,54.90
2023-05-04T11:11:13.951Z,54.60
2023-05-04T11:13:48.567Z,53.30
2023-05-04T11:16:26.523Z,54.00
2023-05-04T11:19:07.619Z,53.90
2023-05-04T11:21:34.454Z,53.00
2023-05-04T11:24:01.360Z,53.90
2023-05-04T11:26:28.761Z,52.60
2023-05-04T11:28:55.504Z,53.50
2023-05-04T11:31:22.400Z,53.30
2023-05-04T11:33:54.948Z,53.00
2023-05-04T11:36:22.762Z,53.00
2023-05-04T11:38:50.185Z,53.40
2023-05-04T11:41:17.156Z,53.30
2023-05-04T11:43:45.279Z,53.70
2023-05-04T11:46:13.172Z,52.80
2023-05-04T11:48:41.367Z,52.00
2023-05-04T11:51:08.105Z,52.40
2023-05-04T11:53:38.892Z,52.20
2023-05-04T11:56:08.338Z,51.90
2023-05-04T11:58:35.602Z,51.50
2023-05-04T12:01:03.572Z,51.50
2023-05-04T12:03:44.096Z,51.40
2023-05-04T12:06:19.284Z,52.20
2023-05-04T12:08:46.052Z,52.80
2023-05-04T12:11:20.361Z,52.60
2023-05-04T12:13:49.438Z,51.70
2023-05-04T12:16:20.624Z,51.10
2023-05-04T12:18:48.451Z,50.80
2023-05-04T12:21:19.263Z,51.60
2023-05-04T12:23:47.434Z,50.20
2023-05-04T12:26:16.893Z,50.70
2023-05-04T12:28:45.505Z,50.00
2023-05-04T12:31:12.412Z,49.60
2023-05-04T12:33:39.161Z,49.60
2023-05-04T12:36:06.356Z,49.40
2023-05-04T12:38:33.287Z,49.20
2023-05-04T12:41:03.404Z,49.20
2023-05-04T12:43:31.242Z,48.90
2023-05-04T12:45:58.050Z,48.30
2023-05-04T12:48:28.273Z,47.60
2023-05-04T12:50:55.260Z,47.20
2023-05-04T12:53:26.072Z,46.80
2023-05-04T12:55:52.779Z,47.30
2023-05-04T12:58:19.785Z,48.90
2023-05-04T13:00:46.561Z,48.20
2023-05-04T13:03:13.709Z,48.20
2023-05-04T13:05:40.701Z,47.60
2023-05-04T13:08:07.358Z,48.40
2023-05-04T13:10:34.146Z,47.50
2023-05-04T13:13:01.042Z,47.50
2023-05-04T13:15:28.062Z,47.70
2023-05-04T13:17:54.995Z,47.20
2023-05-04T13:20:22.654Z,47.60
2023-05-04T13:22:50.529Z,46.60
2023-05-04T13:25:17.639Z,47.30
2023-05-04T13:27:44.495Z,46.70
2023-05-04T13:30:11.981Z,46.30
2023-05-04T13:32:38.779Z,47.10
2023-05-04T13:35:06.247Z,46.40
2023-05-04T13:37:33.973Z,46.10
2023-05-04T13:40:01.747Z,46.60
2023-05-04T13:42:28.535Z,47.30
2023-05-04T13:44:55.288Z,46.70
2023-05-04T13:47:23.595Z,46.90
2023-05-04T13:49:50.747Z,47.60
2023-05-04T13:52:17.644Z,47.40
2023-05-04T13:54:44.439Z,47.00
2023-05-04T13:57:11.185Z,47.50
2023-05-04T13:59:37.887Z,47.20
2023-05-04T14:02:04.674Z,47.40
2023-05-04T14:04:31.784Z,47.80
2023-05-04T14:06:58.546Z,47.70
2023-05-04T14:09:25.874Z,47.30
2023-05-04T14:11:53.539Z,47.60
2023-05-04T14:14:21.783Z,47.40
2023-05-04T14:16:48.530Z,47.50
2023-05-04T14:19:15.196Z,47.40
2023-05-04T14:21:41.876Z,47.80
2023-05-04T14:24:08.677Z,47.80
2023-05-04T14:26:35.414Z,47.50
2023-05-04T14:29:02.424Z,47.60
2023-05-04T14:31:29.169Z,47.00
2023-05-04T14:33:57.002Z,47.60
2023-05-04T14:36:23.870Z,46.40
2023-05-04T14:38:50.759Z,46.00
2023-05-04T14:41:17.447Z,45.80
2023-05-04T14:43:44.136Z,46.40
2023-05-04T14:46:12.699Z,46.20
2023-05-04T14:48:39.554Z,46.60
2023-05-04T14:51:06.570Z,47.00
2023-05-04T14:53:36.889Z,46.90
2023-05-04T14:56:04.732Z,47.70
2023-05-04T14:58:31.590Z,47.30
2023-05-04T15:00:58.255Z,47.50
2023-05-04T15:03:25.943Z,47.20
2023-05-04T15:05:53.024Z,47.20
2023-05-04T15:08:19.765Z,47.40
2023-05-04T15:10:46.531Z,46.90
2023-05-04T15:13:15.652Z,47.10
2023-05-04T15:15:42.853Z,47.50
2023-05-04T15:18:10.425Z,47.50
2023-05-04T15:20:40.490Z,47.60
2023-05-04T15:23:13.132Z,47.70
2023-05-04T15:25:40.991Z,47.60
2023-05-04T15:28:11.962Z,47.80
2023-05-04T15:30:40.100Z,47.50
2023-05-04T15:33:07.284Z,47.60
2023-05-04T15:35:36.468Z,47.80
2023-05-04T15:38:03.520Z,47.70
2023-05-04T15:40:31.414Z,47.80
2023-05-04T15:42:58.450Z,48.30
2023-05-04T15:45:25.796Z,48.60
2023-05-04T15:47:54.190Z,48.60
2023-05-04T15:50:21.843Z,49.00
2023-05-04T15:52:48.772Z,48.70
2023-05-04T15:55:25.550Z,47.80
2023-05-04T15:57:54.040Z,48.80
2023-05-04T16:00:21.322Z,48.40
2023-05-04T16:02:48.507Z,48.40
2023-05-04T16:05:15.397Z,48.20
2023-05-04T16:07:42.068Z,48.40
2023-05-04T16:10:10.021Z,47.80
2023-05-04T16:12:38.323Z,48.00
2023-05-04T16:15:05.829Z,48.20
2023-05-04T16:17:35.116Z,48.00
2023-05-04T16:20:03.214Z,48.70
2023-05-04T16:22:30.534Z,48.00
2023-05-04T16:24:57.812Z,47.80
2023-05-04T16:27:26.932Z,48.00
2023-05-04T16:29:53.855Z,48.10
2023-05-04T16:32:21.688Z,48.10
2023-05-04T16:34:48.657Z,47.80
2023-05-04T16:37:16.034Z,48.00
2023-05-04T16:39:42.906Z,47.70
2023-05-04T16:42:13.490Z,47.40
2023-05-04T16:44:41.358Z,48.00
2023-05-04T16:47:08.424Z,46.40
2023-05-04T16:49:35.291Z,46.60
2023-05-04T16:52:03.563Z,46.40
2023-05-04T16:54:30.257Z,45.50
2023-05-04T16:56:57.128Z,44.90
2023-05-04T16:59:24.848Z,44.70
2023-05-04T17:01:51.586Z,44.60
2023-05-04T17:04:18.600Z,45.20
2023-05-04T17:06:45.595Z,45.70
2023-05-04T17:09:12.254Z,45.90
2023-05-04T17:11:39.009Z,45.20
2023-05-04T17:14:05.748Z,43.90
2023-05-04T17:16:32.582Z,43.20
2023-05-04T17:18:59.480Z,43.30
2023-05-04T17:21:26.163Z,44.20
2023-05-04T17:23:52.811Z,43.10
2023-05-04T17:26:19.790Z,42.00
2023-05-04T17:28:46.574Z,43.20
2023-05-04T17:31:13.465Z,42.20
2023-05-04T17:33:40.206Z,40.90
2023-05-04T17:36:07.764Z,39.60
2023-05-04T17:38:34.673Z,39.10
2023-05-04T17:41:01.592Z,38.20
2023-05-04T17:43:28.337Z,37.20
2023-05-04T17:45:55.977Z,37.30
2023-05-04T17:48:24.051Z,37.30
2023-05-04T17:50:51.412Z,36.50
2023-05-04T17:53:18.484Z,36.10
2023-05-04T17:55:45.383Z,36.60
2023-05-04T17:58:12.087Z,36.30
2023-05-04T18:00:38.813Z,34.80
2023-05-04T18:03:05.628Z,34.20
2023-05-04T18:05:32.581Z,33.40
2023-05-04T18:07:59.344Z,33.30
2023-05-04T18:10:26.141Z,32.30
2023-05-04T18:12:52.892Z,31.60
2023-05-04T18:15:19.757Z,32.10
2023-05-04T18:17:46.560Z,32.30
2023-05-04T18:20:13.594Z,32.50
2023-05-04T18:22:41.010Z,32.40
2023-05-04T18:25:08.322Z,32.40
2023-05-04T18:27:35.847Z,31.80
2023-05-04T18:30:04.314Z,31.40
2023-05-04T18:32:31.316Z,32.00
2023-05-04T18:35:02.663Z,31.60
2023-05-04T18:37:32.953Z,32.00
2023-05-04T18:40:00.260Z,33.00
2023-05-04T18:42:28.450Z,33.80
2023-05-04T18:45:00.306Z,34.30
2023-05-04T18:47:28.252Z,34.90
2023-05-04T18:49:56.510Z,35.50
2023-05-04T18:52:26.753Z,35.60
2023-05-04T18:54:54.985Z,36.10
2023-05-04T18:57:21.704Z,36.50
2023-05-04T18:59:48.549Z,36.90
2023-05-04T19:02:15.270Z,37.20
2023-05-04T19:04:47.428Z,38.40
2023-05-04T19:07:15.514Z,38.10
2023-05-04T19:09:42.527Z,38.20
2023-05-04T19:12:09.394Z,38.50
2023-05-04T19:14:36.592Z,39.10
2023-05-04T19:17:04.890Z,40.50
2023-05-04T19:19:34.880Z,39.80
2023-05-04T19:22:01.588Z,40.40
2023-05-04T19:24:28.449Z,41.00
2023-05-04T19:26:55.969Z,41.90
2023-05-04T19:29:22.830Z,41.40
2023-05-04T19:31:49.647Z,42.00
2023-05-04T19:34:17.722Z,42.50
2023-05-04T19:36:44.650Z,42.70
2023-05-04T19:39:11.411Z,42.90
2023-05-04T19:41:38.126Z,43.20
2023-05-04T19:44:09.930Z,44.10
2023-05-04T19:46:37.541Z,44.20
2023-05-04T19:49:04.602Z,45.10
2023-05-04T19:51:32.806Z,44.80
2023-05-04T19:53:59.829Z,45.70
2023-05-04T19:56:26.554Z,45.70
2023-05-04T19:58:53.235Z,46.10
2023-05-04T20:01:20.198Z,46.10
2023-05-04T20:03:47.053Z,46.80
2023-05-04T20:06:13.811Z,46.20
2023-05-04T20:08:40.682Z,47.30
2023-05-04T20:11:07.680Z,47.10
2023-05-04T20:13:34.450Z,47.50
2023-05-04T20:16:01.934Z,48.40
2023-05-04T20:18:28.786Z,48.90
2023-05-04T20:20:59.364Z,49.80
2023-05-04T20:23:26.117Z,48.90
2023-05-04T20:25:53.019Z,48.70
2023-05-04T20:28:19.744Z,48.90
2023-05-04T20:30:46.837Z,49.10
2023-05-04T20:33:13.620Z,49.40
2023-05-04T20:35:41.609Z,49.70
2023-05-04T20:38:09.276Z,50.10
2023-05-04T20:40:36.048Z,50.30
2023-05-04T20:43:06.149Z,51.00
2023-05-04T20:45:33.508Z,50.80
2023-05-04T20:48:01.223Z,51.10
2023-05-04T20:50:27.970Z,51.50
2023-05-04T20:52:54.770Z,52.70
2023-05-04T20:55:21.522Z,52.30
2023-05-04T20:57:48.363Z,52.50
2023-05-04T21:00:15.622Z,52.70
2023-05-04T21:02:42.637Z,52.80
2023-05-04T21:05:09.715Z,53.10
2023-05-04T21:07:36.430Z,53.20
2023-05-04T21:10:03.661Z,53.40
2023-05-04T21:12:30.521Z,53.90
2023-05-04T21:14:57.466Z,54.10
2023-05-04T21:17:25.811Z,54.30
2023-05-04T21:19:52.588Z,54.70
2023-05-04T21:22:19.497Z,55.00
2023-05-04T21:24:46.854Z,55.20
2023-05-04T21:27:14.028Z,55.50
2023-05-04T21:29:41.058Z,56.80
2023-05-04T21:32:08.082Z,56.60
2023-05-04T21:34:34.927Z,56.40
2023-05-04T21:37:01.897Z,56.60
2023-05-04T21:39:28.665Z,56.90
2023-05-04T21:41:55.769Z,57.10
2023-05-04T21:44:22.802Z,57.40
2023-05-04T21:46:49.506Z,57.50
2023-05-04T21:49:16.238Z,57.60
2023-05-04T21:51:43.235Z,57.70
2023-05-04T21:54:09.953Z,57.90
2023-05-04T21:56:36.731Z,58.90
2023-05-04T21:59:03.568Z,58.50
2023-05-04T22:01:30.489Z,59.50
2023-05-04T22:03:57.324Z,59.00
2023-05-04T22:06:24.642Z,59.10
2023-05-04T22:08:51.665Z,59.40
2023-05-04T22:11:18.391Z,59.50
2023-05-04T22:13:45.168Z,59.80
2023-05-04T22:16:11.883Z,60.00
2023-05-04T22:18:38.742Z,60.20
2023-05-04T22:21:05.675Z,60.50
2023-05-04T22:23:32.379Z,60.70
2023-05-04T22:25:59.151Z,60.80
2023-05-04T22:28:26.342Z,61.00
2023-05-04T22:30:53.074Z,61.10
2023-05-04T22:33:19.781Z,61.40
2023-05-04T22:35:46.731Z,61.80
2023-05-04T22:38:14.556Z,62.10
2023-05-04T22:40:42.994Z,62.40
2023-05-04T22:43:09.865Z,62.60
2023-05-04T22:45:37.207Z,62.70
2023-05-04T22:48:04.229Z,62.60
2023-05-04T22:50:31.161Z,62.90
2023-05-04T22:52:57.861Z,63.20
2023-05-04T22:55:24.654Z,63.20
2023-05-04T22:57:51.448Z,63.50
2023-05-04T23:00:18.610Z,63.60
2023-05-04T23:02:45.360Z,63.30
2023-05-04T23:05:13.056Z,63.80
2023-05-04T23:07:40.200Z,64.20
2023-05-04T23:10:07.957Z,64.30
2023-05-04T23:12:35.053Z,64.50
2023-05-04T23:15:01.894Z,64.70
2023-05-04T23:17:28.608Z,66.20
2023-05-04T23:19:55.562Z,65.20
2023-05-04T23:22:22.215Z,65.10
2023-05-04T23:24:48.880Z,65.70
2023-05-04T23:27:15.554Z,65.90
2023-05-04T23:29:42.209Z,66.20
2023-05-04T23:32:09.043Z,66.20
2023-05-04T23:34:36.048Z,66.30
2023-05-04T23:37:02.826Z,66.00
2023-05-04T23:39:29.567Z,66.10
2023-05-04T23:41:56.254Z,66.50
2023-05-04T23:44:22.998Z,66.40
2023-05-04T23:46:49.828Z,66.50
2023-05-04T23:49:16.643Z,67.00
2023-05-04T23:51:43.408Z,67.20
2023-05-04T23:54:10.173Z,67.20
2023-05-04T23:56:36.845Z,67.30
2023-05-04T23:59:04.020Z,67.50
